Time;durP1;ratioP1;P1;durP2;ratioP2;P2;SDS_P1;SDS_P2;PMS_P1;PMS_P2;Temp;Humidity;BMP_temperature;BMP_pressure;BME280_temperature;BME280_humidity;BME280_pressure;Samples;Min_cycle;Max_cycle;Signal;HPM_P1;HPM_P2
2023/04/04 00:01:12;;;;;;;;;;;;;;;12.53;65.91;97684.84;4972306;28;20290;-73
2023/04/04 00:03:37;;;;;;;;;;;;;;;12.56;65.66;97708.91;4972489;28;19922;-73
2023/04/04 00:06:02;;;;;;;;;;;;;;;12.56;66.10;97718.56;4973802;28;20386;-73
2023/04/04 00:08:28;;;;;;;;;;;;;;;12.52;65.93;97718.03;4973687;28;19918;-74
2023/04/04 00:10:57;;;;;;;;;;;;;;;12.54;65.82;97716.09;4972721;28;20008;-73
2023/04/04 00:13:23;;;;;;;;;;;;;;;12.54;65.88;97716.09;4972115;28;20262;-73
2023/04/04 00:15:48;;;;;;;;;;;;;;;12.52;65.96;97728.50;4971973;28;20040;-73
2023/04/04 00:18:14;;;;;;;;;;;;;;;12.54;65.78;97712.63;4973776;28;19919;-73
2023/04/04 00:20:39;;;;;;;;;;;;;;;12.55;66.26;97722.94;4975945;28;20385;-73
2023/04/04 00:23:04;;;;;;;;;;;;;;;12.60;65.84;97715.47;4975552;28;19925;-73
2023/04/04 00:25:30;;;;;;;;;;;;;;;12.57;65.85;97705.31;4975517;28;19942;-73
2023/04/04 00:27:59;;;;;;;;;;;;;;;12.58;65.93;97695.66;4975657;28;19918;-73
2023/04/04 00:30:24;;;;;;;;;;;;;;;12.53;65.96;97696.13;4976120;28;19924;-73
2023/04/04 00:32:50;;;;;;;;;;;;;;;12.54;66.21;97687.28;4975867;28;19918;-73
2023/04/04 00:35:15;;;;;;;;;;;;;;;12.56;66.18;97684.53;4976147;28;19918;-73
2023/04/04 00:37:41;;;;;;;;;;;;;;;12.58;66.41;97678.13;4977327;28;19941;-73
2023/04/04 00:40:07;;;;;;;;;;;;;;;12.62;65.86;97676.06;4975975;28;19957;-73
2023/04/04 00:42:33;;;;;;;;;;;;;;;12.65;66.12;97673.09;4977085;28;20361;-73
2023/04/04 00:44:59;;;;;;;;;;;;;;;12.67;65.79;97669.34;4975732;28;19996;-73
2023/04/04 00:47:24;;;;;;;;;;;;;;;12.67;65.74;97665.91;4976199;28;20374;-73
2023/04/04 00:49:50;;;;;;;;;;;;;;;12.61;65.74;97640.38;4975740;28;19918;-73
2023/04/04 00:52:16;;;;;;;;;;;;;;;12.61;65.90;97624.66;4975687;28;20347;-73
2023/04/04 00:54:41;;;;;;;;;;;;;;;12.61;66.17;97627.28;4975793;28;19919;-73
2023/04/04 00:57:06;;;;;;;;;;;;;;;12.64;66.01;97656.56;4975524;28;20281;-72
2023/04/04 00:59:31;;;;;;;;;;;;;;;12.62;65.89;97632.34;4975458;28;19961;-73
2023/04/04 01:01:58;;;;;;;;;;;;;;;12.62;65.97;97634.97;4975821;28;19976;-73
2023/04/04 01:04:24;;;;;;;;;;;;;;;12.63;66.20;97654.09;4976797;28;19922;-73
2023/04/04 01:06:49;;;;;;;;;;;;;;;12.68;65.74;97664.94;4975272;28;20036;-73
2023/04/04 01:09:15;;;;;;;;;;;;;;;12.65;66.11;97653.00;4976767;28;20025;-73
2023/04/04 01:11:40;;;;;;;;;;;;;;;12.54;66.03;97668.13;4975478;28;20305;-73
2023/04/04 01:14:05;;;;;;;;;;;;;;;12.55;66.21;97654.06;4975902;28;19928;-73
2023/04/04 01:16:31;;;;;;;;;;;;;;;12.55;66.52;97662.75;4977041;28;20010;-73
2023/04/04 01:18:56;;;;;;;;;;;;;;;12.57;66.32;97659.97;4975155;28;20374;-73
2023/04/04 01:21:21;;;;;;;;;;;;;;;12.61;66.36;97666.53;4976662;28;20336;-73
2023/04/04 01:24:00;;;;;;;;;;;;;;;12.65;66.09;97667.84;4959386;28;19921;-74
2023/04/04 01:26:28;;;;;;;;;;;;;;;12.54;66.39;97666.34;4976782;28;19925;-73
2023/04/04 01:28:54;;;;;;;;;;;;;;;12.56;66.31;97671.44;4958844;28;19926;-73
2023/04/04 01:31:20;;;;;;;;;;;;;;;12.55;66.37;97675.03;4958702;28;19918;-73
2023/04/04 01:33:53;;;;;;;;;;;;;;;12.54;66.50;97657.66;4942660;28;21323;-73
2023/04/04 01:36:22;;;;;;;;;;;;;;;12.57;66.72;97644.25;4958970;28;19924;-73
2023/04/04 01:38:47;;;;;;;;;;;;;;;12.62;66.61;97634.16;4958914;28;19929;-73
2023/04/04 01:41:13;;;;;;;;;;;;;;;12.64;66.29;97653.16;4976665;28;20361;-73
2023/04/04 01:43:38;;;;;;;;;;;;;;;12.62;66.71;97650.69;4959112;28;19969;-73
2023/04/04 01:46:04;;;;;;;;;;;;;;;12.63;66.40;97654.09;4959106;28;19918;-73
2023/04/04 01:48:30;;;;;;;;;;;;;;;12.56;66.66;97653.91;4959001;28;20329;-73
2023/04/04 01:50:55;;;;;;;;;;;;;;;12.60;66.33;97650.03;4976056;28;20374;-73
2023/04/04 01:53:21;;;;;;;;;;;;;;;12.63;66.31;97646.25;4958778;28;19919;-73
2023/04/04 01:55:46;;;;;;;;;;;;;;;12.65;66.42;97647.75;4959044;28;19926;-73
2023/04/04 01:58:11;;;;;;;;;;;;;;;12.68;66.53;97630.88;4959200;28;19925;-73
2023/04/04 02:00:37;;;;;;;;;;;;;;;12.71;66.43;97645.47;4974679;28;19929;-73
2023/04/04 02:03:02;;;;;;;;;;;;;;;12.69;66.54;97626.50;4958483;28;19922;-73
2023/04/04 02:05:28;;;;;;;;;;;;;;;12.66;66.18;97611.91;4958499;28;19919;-73
2023/04/04 02:07:53;;;;;;;;;;;;;;;12.66;66.46;97620.56;4941776;28;19961;-74
2023/04/04 02:10:18;;;;;;;;;;;;;;;12.63;66.20;97626.16;4958411;28;19918;-73
2023/04/04 02:12:44;;;;;;;;;;;;;;;12.65;66.47;97621.56;4974000;28;19973;-73
2023/04/04 02:15:10;;;;;;;;;;;;;;;12.66;66.65;97625.81;4965510;28;19922;-73
2023/04/04 02:17:35;;;;;;;;;;;;;;;12.66;66.43;97610.09;4974152;28;19926;-73
2023/04/04 02:20:01;;;;;;;;;;;;;;;12.66;66.64;97593.56;4973424;28;19918;-73
2023/04/04 02:22:26;;;;;;;;;;;;;;;12.69;66.55;97598.50;4974654;28;19925;-73
2023/04/04 02:24:52;;;;;;;;;;;;;;;12.70;66.27;97592.28;4974053;28;20381;-73
2023/04/04 02:27:18;;;;;;;;;;;;;;;12.72;66.33;97592.13;4974127;28;19918;-73
2023/04/04 02:29:43;;;;;;;;;;;;;;;12.70;66.34;97596.69;4974093;28;19945;-73
2023/04/04 02:32:08;;;;;;;;;;;;;;;12.71;66.33;97587.88;4974154;28;19922;-73
2023/04/04 02:34:34;;;;;;;;;;;;;;;12.70;66.20;97581.81;4975226;28;19918;-73
2023/04/04 02:36:59;;;;;;;;;;;;;;;12.71;66.28;97580.00;4974072;28;20382;-73
2023/04/04 02:39:24;;;;;;;;;;;;;;;12.72;66.01;97581.66;4973404;28;19918;-74
2023/04/04 02:41:50;;;;;;;;;;;;;;;12.73;66.13;97581.50;4973985;28;19976;-73
2023/04/04 02:44:15;;;;;;;;;;;;;;;12.74;66.07;97571.84;4973801;28;20364;-73
2023/04/04 02:46:41;;;;;;;;;;;;;;;12.74;66.08;97580.50;4973666;28;19924;-72
2023/04/04 02:49:06;;;;;;;;;;;;;;;12.76;66.00;97586.44;4974886;28;19918;-75
2023/04/04 02:51:32;;;;;;;;;;;;;;;12.82;67.16;97593.66;4974056;28;19942;-72
2023/04/04 02:53:57;;;;;;;;;;;;;;;12.87;66.86;97590.53;4974556;28;19918;-72
2023/04/04 02:56:23;;;;;;;;;;;;;;;12.88;66.78;97589.56;4974606;28;19977;-72
2023/04/04 02:58:48;;;;;;;;;;;;;;;12.91;66.79;97588.44;4973454;28;19926;-72
2023/04/04 03:01:13;;;;;;;;;;;;;;;12.92;66.23;97584.81;4974097;28;20472;-72
2023/04/04 03:03:39;;;;;;;;;;;;;;;12.92;66.13;97590.06;4972998;28;20424;-75
2023/04/04 03:06:04;;;;;;;;;;;;;;;12.92;66.31;97583.03;4973485;28;19972;-73
2023/04/04 03:08:30;;;;;;;;;;;;;;;12.93;65.84;97574.19;4973256;28;19938;-73
2023/04/04 03:10:55;;;;;;;;;;;;;;;12.93;66.22;97557.66;4972634;28;19918;-73
2023/04/04 03:13:20;;;;;;;;;;;;;;;12.95;66.09;97555.69;4972886;28;20298;-73
2023/04/04 03:15:46;;;;;;;;;;;;;;;12.95;65.98;97563.53;4972496;28;20436;-73
2023/04/04 03:18:11;;;;;;;;;;;;;;;12.95;65.75;97567.00;4973137;28;19982;-73
2023/04/04 03:20:37;;;;;;;;;;;;;;;12.96;65.98;97568.63;4974351;28;20385;-73
2023/04/04 03:23:02;;;;;;;;;;;;;;;12.96;65.89;97550.28;4974101;28;19918;-73
2023/04/04 03:25:27;;;;;;;;;;;;;;;12.96;65.91;97550.28;4972895;28;19922;-73
2023/04/04 03:27:53;;;;;;;;;;;;;;;12.97;65.53;97554.56;4986743;28;19922;-72
2023/04/04 03:30:18;;;;;;;;;;;;;;;12.96;65.61;97565.19;4988984;28;20301;-71
2023/04/04 03:32:43;;;;;;;;;;;;;;;12.95;65.79;97546.03;4972638;28;19946;-73
2023/04/04 03:35:09;;;;;;;;;;;;;;;12.96;65.48;97555.53;4972936;28;19977;-73
2023/04/04 03:37:34;;;;;;;;;;;;;;;12.96;65.68;97558.13;4972461;28;20012;-74
2023/04/04 03:39:59;;;;;;;;;;;;;;;12.96;65.42;97563.38;4974321;28;19960;-72
2023/04/04 03:42:28;;;;;;;;;;;;;;;12.96;65.59;97557.34;4973206;28;20301;-74
2023/04/04 03:44:53;;;;;;;;;;;;;;;13.41;67.74;97571.84;4973010;28;20026;-74
2023/04/04 03:47:19;;;;;;;;;;;;;;;13.42;67.03;97562.97;4973988;28;19957;-76
2023/04/04 03:49:44;;;;;;;;;;;;;;;13.41;66.60;97571.84;4972317;28;19922;-76
2023/04/04 03:52:10;;;;;;;;;;;;;;;13.38;65.97;97565.09;4973328;28;19918;-76
2023/04/04 03:54:35;;;;;;;;;;;;;;;13.45;67.38;97557.41;4972564;28;19922;-75
2023/04/04 03:57:00;;;;;;;;;;;;;;;13.46;66.89;97553.81;4973701;28;19957;-75
2023/04/04 03:59:26;;;;;;;;;;;;;;;13.52;67.54;97555.78;4973200;28;20012;-78
2023/04/04 04:01:51;;;;;;;;;;;;;;;13.70;67.61;97560.81;4972371;28;19925;-74
2023/04/04 04:04:17;;;;;;;;;;;;;;;13.69;66.79;97572.28;4974384;28;19930;-77
2023/04/04 04:06:42;;;;;;;;;;;;;;;13.73;66.58;97562.31;4972427;28;19918;-73
2023/04/04 04:09:08;;;;;;;;;;;;;;;13.71;66.10;97562.47;4973908;28;19922;-76
2023/04/04 04:11:33;;;;;;;;;;;;;;;13.67;66.05;97568.22;4972605;28;19918;-72
2023/04/04 04:13:59;;;;;;;;;;;;;;;13.62;65.66;97570.53;4972412;28;19924;-73
2023/04/04 04:16:25;;;;;;;;;;;;;;;13.55;65.59;97575.56;4956303;28;19929;-74
2023/04/04 04:18:50;;;;;;;;;;;;;;;13.49;65.43;97574.44;4956386;28;19926;-76
2023/04/04 04:21:15;;;;;;;;;;;;;;;13.44;65.44;97584.63;4956097;28;19918;-74
2023/04/04 04:23:41;;;;;;;;;;;;;;;13.38;65.42;97582.63;4971962;28;19926;-73
2023/04/04 04:26:06;;;;;;;;;;;;;;;13.37;65.06;97588.84;4955691;28;19918;-73
2023/04/04 04:28:32;;;;;;;;;;;;;;;13.33;65.31;97584.91;4973324;28;19918;-73
2023/04/04 04:31:05;;;;;;;;;;;;;;;13.29;65.36;97571.28;4956411;28;19922;-73
2023/04/04 04:33:30;;;;;;;;;;;;;;;13.27;65.12;97569.84;4972130;28;19922;-74
2023/04/04 04:36:02;;;;;;;;;;;;;;;13.23;65.14;97566.69;4973453;28;19925;-73
2023/04/04 04:38:27;;;;;;;;;;;;;;;13.20;65.16;97574.88;4956231;28;20452;-74
2023/04/04 04:40:53;;;;;;;;;;;;;;;13.18;65.33;97575.03;4973382;28;19949;-73
2023/04/04 04:43:18;;;;;;;;;;;;;;;13.16;65.43;97577.00;4956028;28;19973;-73
2023/04/04 04:45:43;;;;;;;;;;;;;;;13.16;65.03;97582.25;4973426;28;19918;-73
2023/04/04 04:48:09;;;;;;;;;;;;;;;13.15;65.18;97575.34;4973283;28;19918;-74
2023/04/04 04:50:34;;;;;;;;;;;;;;;13.15;65.11;97572.75;4971599;28;19918;-74
2023/04/04 04:52:59;;;;;;;;;;;;;;;13.15;65.08;97566.69;4955911;28;19918;-73
2023/04/04 04:55:25;;;;;;;;;;;;;;;13.14;65.02;97558.03;4956541;28;19918;-74
2023/04/04 04:57:51;;;;;;;;;;;;;;;13.14;65.32;97558.03;4973309;28;19949;-73
2023/04/04 05:00:16;;;;;;;;;;;;;;;13.14;65.06;97563.25;4956104;28;19925;-73
2023/04/04 05:02:42;;;;;;;;;;;;;;;13.16;64.86;97573.59;4955470;28;19918;-73
2023/04/04 05:05:07;;;;;;;;;;;;;;;13.14;65.07;97554.56;4976015;28;19972;-76
2023/04/04 05:07:33;;;;;;;;;;;;;;;13.14;64.87;97563.25;4959675;28;19917;-76
2023/04/04 05:09:58;;;;;;;;;;;;;;;13.14;64.69;97560.63;4959786;28;20381;-73
2023/04/04 05:12:23;;;;;;;;;;;;;;;13.13;64.87;97555.56;4959457;28;20305;-73
2023/04/04 05:14:49;;;;;;;;;;;;;;;13.11;64.90;97557.50;4964163;28;20381;-74
2023/04/04 05:17:14;;;;;;;;;;;;;;;13.12;64.83;97567.00;4975029;28;20313;-75
2023/04/04 05:19:40;;;;;;;;;;;;;;;13.10;64.81;97561.13;4975336;28;19922;-73
2023/04/04 05:22:06;;;;;;;;;;;;;;;13.07;64.87;97556.22;4975491;28;19918;-75
2023/04/04 05:24:31;;;;;;;;;;;;;;;13.06;64.81;97552.75;4975957;28;19918;-73
2023/04/04 05:26:57;;;;;;;;;;;;;;;13.07;64.83;97558.81;4976734;28;19922;-75
2023/04/04 05:29:22;;;;;;;;;;;;;;;13.05;64.64;97551.13;4975125;28;20288;-75
2023/04/04 05:31:47;;;;;;;;;;;;;;;13.11;66.17;97554.88;4976949;28;19918;-77
2023/04/04 05:34:13;;;;;;;;;;;;;;;13.26;67.41;97549.84;4983145;28;19918;-76
2023/04/04 05:36:38;;;;;;;;;;;;;;;13.30;66.36;97549.34;4975197;28;19922;-75
2023/04/04 05:39:03;;;;;;;;;;;;;;;13.29;65.87;97557.38;4976265;28;19925;-76
2023/04/04 05:41:29;;;;;;;;;;;;;;;13.29;65.46;97557.38;4975230;28;19918;-74
2023/04/04 05:43:55;;;;;;;;;;;;;;;13.29;65.43;97552.94;4974942;28;19918;-75
2023/04/04 05:46:20;;;;;;;;;;;;;;;13.31;65.36;97558.03;4975098;28;19918;-76
2023/04/04 05:48:45;;;;;;;;;;;;;;;13.29;65.20;97563.44;4974834;28;19923;-76
2023/04/04 05:51:11;;;;;;;;;;;;;;;13.28;65.15;97556.53;4974174;28;19987;-75
2023/04/04 05:53:36;;;;;;;;;;;;;;;13.28;65.04;97559.16;4974783;28;19944;-75
2023/04/04 05:56:02;;;;;;;;;;;;;;;13.28;64.88;97558.34;4973319;28;20373;-75
2023/04/04 05:58:27;;;;;;;;;;;;;;;13.28;64.93;97555.72;4988211;28;20386;-74
2023/04/04 06:00:52;;;;;;;;;;;;;;;13.28;64.91;97561.78;4989096;28;19919;-76
2023/04/04 06:03:18;;;;;;;;;;;;;;;13.30;64.86;97566.84;4972746;28;20396;-73
2023/04/04 06:05:43;;;;;;;;;;;;;;;13.37;66.55;97563.44;4988945;28;19922;-76
2023/04/04 06:08:09;;;;;;;;;;;;;;;13.42;66.38;97570.03;4988738;28;19978;-76
2023/04/04 06:10:34;;;;;;;;;;;;;;;13.43;66.38;97567.22;4989142;28;20381;-76
2023/04/04 06:13:00;;;;;;;;;;;;;;;13.44;66.05;97568.88;4987803;28;19922;-75
2023/04/04 06:15:25;;;;;;;;;;;;;;;13.45;65.77;97556.59;4987573;28;20080;-79
2023/04/04 06:17:50;;;;;;;;;;;;;;;13.46;65.58;97560.84;4988317;28;19922;-76
2023/04/04 06:20:17;;;;;;;;;;;;;;;13.46;65.50;97563.47;4988810;28;19918;-75
2023/04/04 06:22:43;;;;;;;;;;;;;;;13.45;65.38;97567.88;4987311;28;19965;-75
2023/04/04 06:25:09;;;;;;;;;;;;;;;13.46;65.20;97558.22;4972532;28;19925;-77
2023/04/04 06:27:35;;;;;;;;;;;;;;;13.44;65.11;97561.03;4972166;28;20445;-75
2023/04/04 06:30:00;;;;;;;;;;;;;;;13.42;65.23;97555.09;4965952;28;20001;-80
2023/04/04 06:32:26;;;;;;;;;;;;;;;13.42;65.07;97551.66;4977330;28;19925;-76
2023/04/04 06:34:52;;;;;;;;;;;;;;;13.41;65.13;97561.34;4988396;28;19922;-77
2023/04/04 06:37:17;;;;;;;;;;;;;;;13.42;65.23;97570.03;4988665;28;19918;-76
2023/04/04 06:39:42;;;;;;;;;;;;;;;13.39;65.12;97564.13;4987998;28;19922;-75
2023/04/04 06:42:08;;;;;;;;;;;;;;;13.39;65.28;97555.44;4971443;28;19914;-77
2023/04/04 06:44:33;;;;;;;;;;;;;;;13.36;65.12;97556.59;4972471;28;19922;-75
2023/04/04 06:46:58;;;;;;;;;;;;;;;13.37;64.81;97557.41;4973137;28;19914;-75
2023/04/04 06:49:24;;;;;;;;;;;;;;;13.37;65.02;97560.84;4971958;28;19989;-74
2023/04/04 06:51:49;;;;;;;;;;;;;;;13.36;64.83;97555.75;4971734;28;20386;-75
2023/04/04 06:54:15;;;;;;;;;;;;;;;13.37;65.05;97558.22;4971037;28;20357;-74
2023/04/04 06:56:40;;;;;;;;;;;;;;;13.37;64.54;97555.59;4987160;28;20356;-76
2023/04/04 06:59:06;;;;;;;;;;;;;;;13.34;64.65;97561.16;4987648;28;19972;-76
2023/04/04 07:01:32;;;;;;;;;;;;;;;13.34;64.71;97557.72;4987897;28;19918;-76
2023/04/04 07:03:57;;;;;;;;;;;;;;;13.32;64.84;97550.00;4987097;28;19929;-75
2023/04/04 07:06:23;;;;;;;;;;;;;;;13.30;64.73;97557.22;4973099;28;19993;-75
2023/04/04 07:08:49;;;;;;;;;;;;;;;13.29;64.97;97560.00;4987353;28;19918;-76
2023/04/04 07:11:14;;;;;;;;;;;;;;;13.29;64.93;97554.75;4987584;28;19988;-76
2023/04/04 07:13:40;;;;;;;;;;;;;;;13.51;67.19;97567.22;4987678;28;19914;-77
2023/04/04 07:16:05;;;;;;;;;;;;;;;13.55;66.67;97563.31;4987745;28;19926;-77
2023/04/04 07:18:31;;;;;;;;;;;;;;;13.85;67.81;97560.16;4987983;28;19925;-75
2023/04/04 07:20:57;;;;;;;;;;;;;;;14.16;66.86;97562.06;4987667;28;19977;-75
2023/04/04 07:23:22;;;;;;;;;;;;;;;14.21;66.53;97560.53;4987957;28;19918;-75
2023/04/04 07:25:48;;;;;;;;;;;;;;;14.17;65.54;97563.69;4986680;28;19918;-75
2023/04/04 07:28:13;;;;;;;;;;;;;;;14.11;65.23;97565.19;4987276;28;20005;-74
2023/04/04 07:30:38;;;;;;;;;;;;;;;14.07;65.13;97558.63;4987787;28;19918;-76
2023/04/04 07:33:04;;;;;;;;;;;;;;;14.03;64.72;97567.84;4987419;28;19973;-74
2023/04/04 07:35:29;;;;;;;;;;;;;;;13.99;64.66;97566.53;4971400;28;20005;-78
2023/04/04 07:37:54;;;;;;;;;;;;;;;13.96;64.47;97558.97;4987060;28;19929;-76
2023/04/04 07:40:20;;;;;;;;;;;;;;;13.93;64.47;97563.59;4970770;28;20383;-77
2023/04/04 07:42:46;;;;;;;;;;;;;;;13.91;64.44;97549.78;4970421;28;20349;-80
2023/04/04 07:45:14;;;;;;;;;;;;;;;13.91;64.35;97555.03;4975422;28;19919;-71
2023/04/04 07:47:43;;;;;;;;;;;;;;;13.86;64.23;97554.72;4962836;28;19925;-79
2023/04/04 07:50:09;;;;;;;;;;;;;;;13.84;64.52;97554.09;4987064;28;19929;-80
2023/04/04 07:52:34;;;;;;;;;;;;;;;13.82;64.58;97549.97;4965515;28;19919;-91
2023/04/04 07:55:02;;;;;;;;;;;;;;;13.80;64.57;97557.22;4952170;28;19918;-87
2023/04/04 07:57:27;;;;;;;;;;;;;;;14.05;66.85;97550.91;4968175;28;20406;-78
2023/04/04 07:59:52;;;;;;;;;;;;;;;14.07;66.37;97546.34;4968132;28;19926;-80
2023/04/04 08:02:18;;;;;;;;;;;;;;;14.08;65.85;97549.78;4968497;28;19918;-78
2023/04/04 08:04:43;;;;;;;;;;;;;;;14.03;65.71;97547.66;4986181;28;19926;-79
2023/04/04 08:07:08;;;;;;;;;;;;;;;14.17;66.52;97554.00;4987713;28;20365;-80
2023/04/04 08:09:35;;;;;;;;;;;;;;;14.75;65.02;97544.09;4987622;28;20016;-80
2023/04/04 08:12:01;;;;;;;;;;;;;;;14.73;64.65;97540.84;4987025;28;19925;-81
2023/04/04 08:14:26;;;;;;;;;;;;;;;14.70;64.44;97543.00;4966145;28;20021;-78
2023/04/04 08:16:52;;;;;;;;;;;;;;;14.61;64.20;97545.66;4953336;28;19926;-81
2023/04/04 08:19:18;;;;;;;;;;;;;;;14.54;64.05;97543.88;4974827;28;20403;-79
2023/04/04 08:21:44;;;;;;;;;;;;;;;14.43;64.10;97542.44;4972024;28;19922;-79
2023/04/04 08:24:10;;;;;;;;;;;;;;;14.36;64.00;97546.72;4955821;28;20377;-78
2023/04/04 08:26:35;;;;;;;;;;;;;;;14.34;65.30;97548.69;4970975;28;20365;-78
2023/04/04 08:29:00;;;;;;;;;;;;;;;14.32;64.69;97550.69;4971872;28;19918;-79
2023/04/04 08:31:27;;;;;;;;;;;;;;;14.26;64.70;97557.41;4979652;28;19918;-77
2023/04/04 08:33:52;;;;;;;;;;;;;;;14.17;64.82;97555.81;4967475;28;20365;-80
2023/04/04 08:36:18;;;;;;;;;;;;;;;14.09;64.79;97567.16;4986753;28;19933;-80
2023/04/04 08:38:43;;;;;;;;;;;;;;;14.03;64.85;97567.84;4986688;28;20365;-80
2023/04/04 08:41:09;;;;;;;;;;;;;;;14.00;64.83;97574.22;4991753;28;20065;-81
2023/04/04 08:43:34;;;;;;;;;;;;;;;13.97;64.98;97576.38;4993236;28;19981;-80
2023/04/04 08:46:00;;;;;;;;;;;;;;;13.91;65.04;97581.28;4992810;28;19922;-81
2023/04/04 08:48:28;;;;;;;;;;;;;;;13.89;65.16;97579.81;4991933;28;19945;-81
2023/04/04 08:50:56;;;;;;;;;;;;;;;13.85;65.12;97589.84;4976586;28;19956;-82
2023/04/04 08:53:22;;;;;;;;;;;;;;;13.81;65.37;97588.53;4976672;28;19918;-81
2023/04/04 08:55:47;;;;;;;;;;;;;;;13.75;65.11;97592.59;4992452;28;20013;-80
2023/04/04 08:58:13;;;;;;;;;;;;;;;13.72;65.38;97586.88;4976312;28;19918;-80
2023/04/04 09:00:40;;;;;;;;;;;;;;;13.71;65.44;97590.47;4975956;28;20397;-79
2023/04/04 09:03:06;;;;;;;;;;;;;;;13.71;65.27;97599.19;4976111;28;19924;-81
2023/04/04 09:05:31;;;;;;;;;;;;;;;13.71;65.29;97595.72;4977592;28;19918;-80
2023/04/04 09:07:57;;;;;;;;;;;;;;;13.71;65.22;97590.47;4976103;28;20444;-81
2023/04/04 09:10:22;;;;;;;;;;;;;;;13.75;64.99;97581.31;4992136;28;20014;-81
2023/04/04 09:12:48;;;;;;;;;;;;;;;13.80;65.01;97581.63;4992388;28;19948;-79
2023/04/04 09:15:13;;;;;;;;;;;;;;;13.83;64.89;97585.72;4991822;28;19926;-81
2023/04/04 09:17:38;;;;;;;;;;;;;;;13.88;64.66;97592.13;4975745;28;19977;-80
2023/04/04 09:20:24;;;;;;;;;;;;;;;13.96;64.64;97583.41;4975935;28;19969;-83
2023/04/04 09:22:49;;;;;;;;;;;;;;;14.00;64.48;97591.78;4968629;28;20369;-80
2023/04/04 09:25:15;;;;;;;;;;;;;;;14.06;64.45;97589.31;4976813;28;19948;-79
2023/04/04 09:27:43;;;;;;;;;;;;;;;14.16;63.89;97590.94;4975732;28;19977;-78
2023/04/04 09:30:08;;;;;;;;;;;;;;;14.21;63.89;97596.47;4991628;28;19927;-82
2023/04/04 09:32:33;;;;;;;;;;;;;;;14.20;63.94;97602.72;4975449;28;19918;-82
2023/04/04 09:35:00;;;;;;;;;;;;;;;14.20;63.96;97600.09;4975474;28;20297;-83
2023/04/04 09:37:25;;;;;;;;;;;;;;;14.19;63.85;97599.28;4975210;28;19957;-79
2023/04/04 09:39:50;;;;;;;;;;;;;;;14.20;63.79;97602.72;4991916;28;19965;-80
2023/04/04 09:42:16;;;;;;;;;;;;;;;14.23;63.90;97605.00;4975332;28;19918;-83
2023/04/04 09:44:41;;;;;;;;;;;;;;;14.28;63.73;97614.03;4975232;28;20013;-81
2023/04/04 09:47:26;;;;;;;;;;;;;;;14.30;63.66;97598.91;4975479;28;19922;-80
2023/04/04 09:49:51;;;;;;;;;;;;;;;14.34;63.62;97606.44;4974718;28;19941;-81
2023/04/04 09:52:18;;;;;;;;;;;;;;;14.37;63.55;97604.31;4975971;28;20373;-84
2023/04/04 09:54:44;;;;;;;;;;;;;;;14.46;63.41;97607.72;4976569;28;19918;-82
2023/04/04 09:57:09;;;;;;;;;;;;;;;14.58;63.21;97605.53;4991594;28;19925;-81
2023/04/04 09:59:35;;;;;;;;;;;;;;;14.64;63.03;97603.09;4975254;28;20074;-79
2023/04/04 10:02:01;;;;;;;;;;;;;;;14.72;62.69;97607.50;4991249;28;19942;-81
2023/04/04 10:04:27;;;;;;;;;;;;;;;14.74;62.57;97602.91;4974934;28;19918;-80
2023/04/04 10:06:52;;;;;;;;;;;;;;;14.77;62.66;97606.97;4991005;28;20302;-80
2023/04/04 10:09:18;;;;;;;;;;;;;;;14.80;62.50;97593.50;4974602;28;19934;-81
2023/04/04 10:11:44;;;;;;;;;;;;;;;14.89;62.34;97595.09;4991124;28;19961;-79
2023/04/04 10:14:09;;;;;;;;;;;;;;;15.05;61.99;97598.63;4990604;28;19934;-81
2023/04/04 10:16:36;;;;;;;;;;;;;;;15.10;61.82;97593.66;4958649;28;19925;-78
2023/04/04 10:19:02;;;;;;;;;;;;;;;15.25;61.62;97591.13;4958862;28;19914;-78
2023/04/04 10:21:28;;;;;;;;;;;;;;;15.43;61.24;97589.00;4958759;28;19922;-78
2023/04/04 10:23:53;;;;;;;;;;;;;;;15.69;60.68;97593.88;4958255;28;19914;-78
2023/04/04 10:26:18;;;;;;;;;;;;;;;15.94;59.94;97590.25;4958178;28;19918;-79
2023/04/04 10:28:44;;;;;;;;;;;;;;;16.13;59.28;97586.28;4958168;28;19918;-79
2023/04/04 10:31:23;;;;;;;;;;;;;;;16.28;58.98;97584.47;4958337;28;19953;-79
2023/04/04 10:34:07;;;;;;;;;;;;;;;16.32;59.03;97585.75;4974256;28;20382;-76
2023/04/04 10:36:51;;;;;;;;;;;;;;;16.36;59.10;97583.56;4975540;28;19922;-79
2023/04/04 10:39:22;;;;;;;;;;;;;;;16.46;58.77;97579.66;4958161;28;19924;-78
2023/04/04 10:41:49;;;;;;;;;;;;;;;16.50;58.85;97572.19;4975134;28;20012;-84
2023/04/04 10:44:36;;;;;;;;;;;;;;;16.53;58.63;97579.72;4958059;28;20282;-82
2023/04/04 10:47:05;;;;;;;;;;;;;;;16.56;58.53;97568.84;4957473;28;20033;-82
2023/04/04 10:49:31;;;;;;;;;;;;;;;16.60;58.35;97582.44;4975286;28;19918;-81
2023/04/04 10:51:56;;;;;;;;;;;;;;;16.67;58.33;97574.63;4958408;28;19924;-83
2023/04/04 10:54:21;;;;;;;;;;;;;;;16.76;57.90;97573.50;4957819;28;20369;-81
2023/04/04 10:56:46;;;;;;;;;;;;;;;16.76;58.09;97577.00;4958073;28;20401;-81
2023/04/04 10:59:12;;;;;;;;;;;;;;;16.93;57.66;97580.22;4958101;28;20362;-82
2023/04/04 11:01:53;;;;;;;;;;;;;;;17.08;57.11;97577.56;4974616;28;19922;-82
2023/04/04 11:04:19;;;;;;;;;;;;;;;17.26;56.87;97573.69;4957900;28;20349;-81
2023/04/04 11:07:03;;;;;;;;;;;;;;;17.45;56.44;97582.78;4956900;28;19948;-79
2023/04/04 11:09:48;;;;;;;;;;;;;;;17.55;55.89;97585.91;4974895;28;19918;-82
2023/04/04 11:12:20;;;;;;;;;;;;;;;17.65;55.67;97575.06;4957305;28;19969;-80
2023/04/04 11:14:55;;;;;;;;;;;;;;;17.76;55.54;97565.78;4962320;28;19932;-80
2023/04/04 11:17:40;;;;;;;;;;;;;;;17.90;55.41;97557.81;4989776;28;19973;-80
2023/04/04 11:20:09;;;;;;;;;;;;;;;18.22;54.81;97555.56;4973265;28;19918;-80
2023/04/04 11:22:35;;;;;;;;;;;;;;;18.48;54.31;97545.31;4973267;28;19926;-79
2023/04/04 11:25:20;;;;;;;;;;;;;;;18.73;53.80;97535.03;4974669;28;20013;-80
2023/04/04 11:27:47;;;;;;;;;;;;;;;18.93;53.51;97524.56;4934083;29;19970;-79
2023/04/04 11:30:13;;;;;;;;;;;;;;;19.08;53.29;97519.09;4918268;29;20006;-82
2023/04/04 11:32:44;;;;;;;;;;;;;;;19.27;52.63;97520.13;4917544;29;20010;-78
2023/04/04 11:35:10;;;;;;;;;;;;;;;19.36;52.59;97520.75;4918436;29;19919;-82
2023/04/04 11:37:51;;;;;;;;;;;;;;;19.50;51.96;97519.75;4917892;29;19919;-80
2023/04/04 11:40:16;;;;;;;;;;;;;;;19.64;51.75;97515.22;4917971;29;19919;-79
2023/04/04 11:42:42;;;;;;;;;;;;;;;19.65;51.59;97519.50;4933712;29;20296;-80
2023/04/04 11:45:09;;;;;;;;;;;;;;;19.74;51.63;97515.63;4917883;29;19927;-82
2023/04/04 11:47:34;;;;;;;;;;;;;;;19.80;51.35;97527.28;4917798;29;19978;-80
2023/04/04 11:49:59;;;;;;;;;;;;;;;19.78;51.30;97522.19;4917891;29;19923;-80
2023/04/04 11:52:25;;;;;;;;;;;;;;;19.85;51.22;97522.19;4917581;29;20378;-80
2023/04/04 11:54:51;;;;;;;;;;;;;;;19.84;51.38;97525.84;4917894;29;19941;-80
2023/04/04 11:57:17;;;;;;;;;;;;;;;19.81;51.05;97513.81;4917674;29;20417;-81
2023/04/04 11:59:46;;;;;;;;;;;;;;;19.78;51.16;97527.50;4917756;29;20009;-81
2023/04/04 12:02:12;;;;;;;;;;;;;;;19.81;51.30;97518.31;4933528;29;20393;-80
2023/04/04 12:04:37;;;;;;;;;;;;;;;19.79;51.20;97523.81;4949514;28;19922;-79
2023/04/04 12:07:06;;;;;;;;;;;;;;;19.77;51.50;97522.41;4973001;28;19918;-84
2023/04/04 12:09:31;;;;;;;;;;;;;;;19.74;51.37;97523.59;4972507;28;19918;-80
2023/04/04 12:11:57;;;;;;;;;;;;;;;19.82;51.05;97527.88;4989306;28;19922;-79
2023/04/04 12:14:22;;;;;;;;;;;;;;;19.83;50.94;97517.09;4990419;28;19926;-79
2023/04/04 12:16:48;;;;;;;;;;;;;;;19.72;50.98;97515.03;4993364;28;20309;-80
2023/04/04 12:19:15;;;;;;;;;;;;;;;19.75;51.04;97513.78;4993036;28;19925;-80
2023/04/04 12:21:41;;;;;;;;;;;;;;;19.86;50.94;97510.53;4976399;28;19925;-80
2023/04/04 12:24:06;;;;;;;;;;;;;;;19.91;50.70;97504.63;4976380;28;19918;-83
2023/04/04 12:26:32;;;;;;;;;;;;;;;19.92;50.79;97511.56;4977774;28;19918;-79
2023/04/04 12:28:57;;;;;;;;;;;;;;;19.82;50.85;97501.41;4977333;28;19922;-81
2023/04/04 12:31:26;;;;;;;;;;;;;;;19.76;51.11;97502.19;4976547;28;20489;-80
2023/04/04 12:33:52;;;;;;;;;;;;;;;19.71;51.34;97500.97;4976281;28;19918;-80
2023/04/04 12:36:17;;;;;;;;;;;;;;;19.71;51.54;97500.16;4976360;28;19948;-82
2023/04/04 12:38:57;;;;;;;;;;;;;;;19.70;51.37;97501.19;4976247;28;19965;-78
2023/04/04 12:41:22;;;;;;;;;;;;;;;19.64;51.31;97499.34;4976102;28;19918;-78
2023/04/04 12:43:47;;;;;;;;;;;;;;;19.60;51.59;97496.31;4977441;28;19925;-80